Time;durP1;ratioP1;P1;durP2;ratioP2;P2;SDS_P1;SDS_P2;PMS_P1;PMS_P2;Temp;Humidity;BMP_temperature;BMP_pressure;BME280_temperature;BME280_humidity;BME280_pressure;Samples;Min_cycle;Max_cycle;Signal;HPM_P1;HPM_P2
2021/08/03 00:00:14;;;;;;;24.45;12.13;;;;;;;23.89;80.01;101018.08;1721334;81;21411;-69
2021/08/03 00:02:47;;;;;;;19.32;12.07;;;;;;;23.93;79.77;101011.13;1790662;80;21177;-69
2021/08/03 00:05:24;;;;;;;18.70;11.75;;;;;;;23.93;79.49;101015.39;1790577;80;21311;-68
2021/08/03 00:08:04;;;;;;;20.62;12.05;;;;;;;23.93;79.42;101009.14;1787458;80;21711;-68
2021/08/03 00:10:37;;;;;;;18.87;12.70;;;;;;;23.92;79.34;101003.80;1790417;80;21319;-70
2021/08/03 00:13:19;;;;;;;26.05;11.80;;;;;;;23.90;79.28;100989.13;1790512;80;21405;-70
2021/08/03 00:15:52;;;;;;;;;;;;;;;23.87;79.18;100990.64;1793057;80;21320;-69
2021/08/03 00:18:25;;;;;;;20.62;12.53;;;;;;;23.85;79.26;100992.97;1790417;80;20218;-70
2021/08/03 00:21:00;;;;;;;20.85;11.50;;;;;;;23.86;79.24;100990.95;1790248;80;21145;-72
2021/08/03 00:23:33;;;;;;;20.75;12.43;;;;;;;23.87;79.24;100995.44;1790760;80;21253;-69
2021/08/03 00:26:05;;;;;;;21.73;13.00;;;;;;;23.90;79.13;100999.87;1751281;76;21358;-71
2021/08/03 00:28:38;;;;;;;16.37;12.47;;;;;;;23.94;79.01;101008.53;1739504;82;21341;-73
2021/08/03 00:31:12;;;;;;;19.82;11.73;;;;;;;23.98;78.82;101012.36;1707057;83;21376;-68
2021/08/03 00:33:53;;;;;;;20.72;11.12;;;;;;;23.97;78.62;101019.22;1692700;85;21388;-70
2021/08/03 00:36:29;;;;;;;18.25;12.13;;;;;;;23.96;78.67;101018.98;1743983;82;21320;-68
2021/08/03 00:39:03;;;;;;;25.97;13.00;;;;;;;23.94;78.66;101019.89;1717415;83;21353;-69
2021/08/03 00:41:56;;;;;;;21.33;13.03;;;;;;;23.94;78.65;101016.48;1697648;83;21245;-69
2021/08/03 00:44:47;;;;;;;23.60;11.35;;;;;;;23.93;78.67;101029.58;1739800;82;21448;-67
2021/08/03 00:47:22;;;;;;;18.70;11.38;;;;;;;23.94;78.69;101044.01;1702796;83;21293;-69
2021/08/03 00:49:58;;;;;;;22.48;13.20;;;;;;;24.02;78.71;101061.60;1718377;83;21800;-76
2021/08/03 00:52:31;;;;;;;19.98;13.30;;;;;;;24.11;78.44;101053.86;1716117;83;21218;-69
2021/08/03 00:55:07;;;;;;;;;;;;;;;24.18;78.12;101059.26;1718980;79;21761;-67
2021/08/03 00:57:40;;;;;;;19.67;13.50;;;;;;;24.23;77.92;101058.22;1760231;81;20294;-70
2021/08/03 01:00:12;;;;;;;;;;;;;;;24.20;77.97;101046.96;1772494;81;21321;-67
2021/08/03 01:02:45;;;;;;;31.40;17.37;;;;;;;24.25;77.93;101031.16;1731646;83;20258;-68
2021/08/03 01:05:19;;;;;;;28.30;19.50;;;;;;;24.24;77.83;101025.81;1749423;81;21348;-68
2021/08/03 01:08:16;;;;;;;25.08;16.17;;;;;;;24.20;77.91;101024.25;1761444;80;21823;-68
2021/08/03 01:10:56;;;;;;;24.80;15.63;;;;;;;24.15;78.02;101005.98;1719192;81;21162;-67
2021/08/03 01:14:05;;;;;;;22.98;13.80;;;;;;;24.04;78.67;100998.23;1671776;85;21174;-67
2021/08/03 01:16:43;;;;;;;21.50;14.00;;;;;;;23.94;79.28;100992.92;1671977;86;21181;-68
2021/08/03 01:19:50;;;;;;;19.90;13.45;;;;;;;23.86;79.47;100981.86;1670038;86;21783;-67
2021/08/03 01:22:42;;;;;;;23.42;13.88;;;;;;;23.78;79.71;100976.23;1669251;84;21190;-67
2021/08/03 01:25:28;;;;;;;23.60;14.23;;;;;;;23.72;79.91;100973.34;1742811;80;21335;-68
2021/08/03 01:28:36;;;;;;;19.07;13.10;;;;;;;23.65;80.09;100963.11;1747549;81;21224;-69
2021/08/03 01:31:21;;;;;;;17.85;12.98;;;;;;;23.65;80.31;100963.93;1745424;80;21881;-68
2021/08/03 01:34:09;;;;;;;20.10;12.10;;;;;;;23.66;80.50;100969.84;1780566;80;21170;-68
2021/08/03 01:36:45;;;;;;;24.37;12.63;;;;;;;23.71;80.60;100973.91;1777533;80;21851;-68
2021/08/03 01:39:25;;;;;;;18.32;11.85;;;;;;;23.69;80.63;100976.27;1775057;80;21359;-73
2021/08/03 01:42:02;;;;;;;19.95;12.98;;;;;;;23.65;80.73;100968.79;1790079;77;21146;-69
2021/08/03 01:44:37;;;;;;;22.95;12.65;;;;;;;23.62;80.80;100980.80;1782499;79;21396;-75
2021/08/03 01:47:10;;;;;;;17.95;13.55;;;;;;;23.60;80.79;100991.66;1780421;80;21182;-69
2021/08/03 01:49:45;;;;;;;24.90;13.22;;;;;;;23.57;80.89;100987.50;1782937;80;21755;-67
2021/08/03 01:52:19;;;;;;;20.23;12.82;;;;;;;23.57;80.87;100992.33;1785229;79;21170;-74
2021/08/03 01:54:53;;;;;;;22.20;12.63;;;;;;;23.61;80.92;101000.41;1802617;78;21163;-68
2021/08/03 01:57:27;;;;;;;15.93;12.25;;;;;;;23.65;80.80;101014.17;1822745;78;21305;-68
2021/08/03 02:00:01;;;;;;;26.55;15.28;;;;;;;23.65;80.72;101019.23;1844472;78;21230;-75
2021/08/03 02:02:34;;;;;;;24.82;15.05;;;;;;;23.62;80.72;101023.34;1841471;78;21575;-68
2021/08/03 02:05:09;;;;;;;21.17;14.43;;;;;;;23.60;80.80;101038.45;1844070;78;21862;-68
2021/08/03 02:07:44;;;;;;;21.00;14.63;;;;;;;23.61;80.96;101047.20;1814125;79;21684;-69
2021/08/03 02:10:21;;;;;;;22.35;15.43;;;;;;;23.62;81.06;101041.78;1845479;78;21364;-69
2021/08/03 02:12:56;;;;;;;25.32;14.95;;;;;;;23.68;80.94;101047.52;1800680;78;21801;-68
2021/08/03 02:15:31;;;;;;;23.95;15.10;;;;;;;23.71;80.48;101040.57;1803179;79;21364;-73
2021/08/03 02:18:06;;;;;;;21.12;13.95;;;;;;;23.68;80.16;101048.36;1791320;79;21364;-73
2021/08/03 02:20:42;;;;;;;22.07;12.93;;;;;;;23.67;80.06;101049.53;1780709;79;21316;-71
2021/08/03 02:23:15;;;;;;;26.82;14.30;;;;;;;23.67;79.93;101060.03;1836178;77;21344;-67
2021/08/03 02:25:50;;;;;;;21.25;14.83;;;;;;;23.61;79.68;101055.72;1817050;77;21285;-67
2021/08/03 02:28:22;;;;;;;18.95;12.93;;;;;;;23.45;80.00;101055.43;1802090;77;21332;-69
2021/08/03 02:30:55;;;;;;;22.85;12.75;;;;;;;23.45;80.00;101055.43;1770029;79;21321;-69
2021/08/03 02:33:31;;;;;;;26.02;14.00;;;;;;;23.45;79.95;101065.92;1761813;81;21257;-68
2021/08/03 02:36:11;;;;;;;26.73;13.35;;;;;;;23.42;80.25;101078.77;1763430;80;21174;-68
2021/08/03 02:38:45;;;;;;;19.07;13.32;;;;;;;23.41;80.48;101076.30;1763412;81;21894;-69
2021/08/03 02:41:19;;;;;;;33.50;14.47;;;;;;;23.41;80.65;101083.38;1759174;81;21824;-69
2021/08/03 02:43:52;;;;;;;21.60;13.20;;;;;;;23.42;80.77;101090.11;1808258;77;21318;-69
2021/08/03 02:46:27;;;;;;;21.97;13.32;;;;;;;23.48;80.72;101091.60;1818757;77;21290;-68
2021/08/03 02:49:07;;;;;;;19.90;13.25;;;;;;;23.45;80.75;101103.63;1784414;80;21303;-67
2021/08/03 02:51:36;;;;;;;22.55;14.33;;;;;;;23.46;80.91;101110.97;1791061;79;21230;-70
2021/08/03 02:54:26;;;;;;;26.60;15.43;;;;;;;23.45;80.98;101103.63;1775012;77;21730;-68
2021/08/03 02:57:00;;;;;;;20.30;15.10;;;;;;;23.44;81.12;101108.22;1813217;77;21422;-66
2021/08/03 02:59:35;;;;;;;22.45;14.58;;;;;;;23.42;81.34;101107.13;1816018;79;21319;-67
2021/08/03 03:02:10;;;;;;;25.68;14.45;;;;;;;23.42;81.50;101102.88;1812553;76;21317;-74
2021/08/03 03:05:00;;;;;;;20.52;13.53;;;;;;;23.45;81.67;101098.53;1685246;84;21903;-74
2021/08/03 03:07:40;;;;;;;24.20;14.95;;;;;;;23.47;81.77;101111.81;1655428;85;21745;-69
2021/08/03 03:10:21;;;;;;;22.82;15.38;;;;;;;23.51;81.75;101118.45;1685326;85;21328;-71
2021/08/03 03:13:06;;;;;;;24.05;15.50;;;;;;;23.51;81.65;101108.53;1682776;85;21753;-71
2021/08/03 03:15:41;;;;;;;23.38;15.40;;;;;;;23.51;81.64;101114.20;1680303;84;21217;-69
2021/08/03 03:18:14;;;;;;;22.73;14.95;;;;;;;23.52;81.71;101128.66;1703942;84;21299;-72
2021/08/03 03:20:48;;;;;;;27.17;16.25;;;;;;;23.55;81.65;101127.40;1686552;84;21338;-72
2021/08/03 03:23:22;;;;;;;;;;;;;;;23.57;81.52;101130.72;1691531;83;21303;-68
2021/08/03 03:25:56;;;;;;;22.00;16.32;;;;;;;23.61;81.42;101135.13;1659986;85;20195;-70
2021/08/03 03:28:32;;;;;;;24.67;16.02;;;;;;;23.65;81.42;101142.63;1700496;84;21179;-71
2021/08/03 03:31:06;;;;;;;30.05;16.70;;;;;;;23.68;81.20;101148.22;1717498;82;21285;-71
2021/08/03 03:33:42;;;;;;;25.30;16.02;;;;;;;23.66;81.22;101164.14;1685308;85;21342;-75
2021/08/03 03:36:16;;;;;;;25.75;16.20;;;;;;;23.67;81.35;101174.34;1671904;85;21844;-67
2021/08/03 03:38:48;;;;;;;28.87;17.07;;;;;;;23.75;81.44;101189.09;1677987;84;21275;-66
2021/08/03 03:41:26;;;;;;;28.00;16.62;;;;;;;23.85;81.21;101182.23;1666066;84;21245;-70
2021/08/03 03:43:59;;;;;;;24.87;16.82;;;;;;;23.95;80.91;101186.17;1725207;83;21384;-68
2021/08/03 03:46:35;;;;;;;29.92;15.88;;;;;;;24.06;80.43;101192.56;1725222;83;21229;-68
2021/08/03 03:49:12;;;;;;;23.50;16.62;;;;;;;24.14;80.08;101201.62;1770939;78;21195;-75
2021/08/03 03:51:47;;;;;;;45.17;17.55;;;;;;;24.24;79.74;101217.46;1774750;80;21827;-68
2021/08/03 03:54:29;;;;;;;30.25;16.95;;;;;;;24.28;79.37;101215.05;1753880;80;21285;-68
2021/08/03 03:57:05;;;;;;;31.37;18.82;;;;;;;24.36;79.17;101214.75;1751001;82;21194;-70
2021/08/03 03:59:38;;;;;;;25.60;16.82;;;;;;;24.42;78.78;101204.87;1793648;80;21764;-72
2021/08/03 04:02:11;;;;;;;29.50;18.30;;;;;;;24.43;78.48;101206.53;1781455;80;21184;-67
2021/08/03 04:04:47;;;;;;;24.02;16.52;;;;;;;24.41;78.55;101209.73;1781746;80;21178;-71
2021/08/03 04:07:20;;;;;;;26.87;15.85;;;;;;;24.44;78.36;101208.22;1781627;80;21329;-72
2021/08/03 04:10:07;;;;;;;26.48;15.80;;;;;;;24.41;78.30;101209.73;1781850;80;21214;-67
2021/08/03 04:12:41;;;;;;;24.57;15.23;;;;;;;24.35;78.34;101217.34;1780898;80;21403;-71
2021/08/03 04:15:16;;;;;;;22.62;15.50;;;;;;;24.23;78.61;101220.91;1759986;81;21325;-71
2021/08/03 04:17:48;;;;;;;29.60;17.20;;;;;;;24.20;79.01;101222.17;1766176;80;21162;-69
2021/08/03 04:20:21;;;;;;;25.45;17.10;;;;;;;24.17;79.25;101215.73;1767349;80;21332;-72
2021/08/03 04:22:55;;;;;;;33.30;16.73;;;;;;;24.19;79.35;101209.16;1781587;80;21831;-68
2021/08/03 04:25:27;;;;;;;27.45;15.38;;;;;;;24.24;79.16;101203.27;1781635;80;21317;-71
2021/08/03 04:28:00;;;;;;;23.55;15.98;;;;;;;24.27;79.13;101195.50;1781563;80;21182;-68
2021/08/03 04:30:33;;;;;;;23.75;16.17;;;;;;;24.32;78.68;101186.80;1782888;80;21764;-73
2021/08/03 04:33:05;;;;;;;23.02;15.83;;;;;;;24.34;78.66;101173.09;1779568;80;21175;-73
2021/08/03 04:35:38;;;;;;;25.88;16.15;;;;;;;24.38;78.33;101183.41;1807137;79;21212;-75
2021/08/03 04:38:11;;;;;;;29.90;16.80;;;;;;;24.37;77.99;101194.53;1812280;76;21170;-69
2021/08/03 04:40:46;;;;;;;29.40;17.42;;;;;;;24.33;78.06;101199.22;1815449;79;21281;-71
2021/08/03 04:43:18;;;;;;;33.30;17.00;;;;;;;24.29;78.04;101203.09;1815425;79;21289;-69
2021/08/03 04:45:51;;;;;;;23.47;16.20;;;;;;;24.26;78.00;101203.78;1815616;79;21150;-70
2021/08/03 04:48:24;;;;;;;23.75;16.12;;;;;;;24.19;77.99;101198.61;1815074;79;21399;-68
2021/08/03 04:50:56;;;;;;;29.07;16.63;;;;;;;24.15;78.08;101208.97;1815592;77;21305;-69
2021/08/03 04:53:29;;;;;;;23.65;17.42;;;;;;;24.11;78.20;101205.16;1800800;79;21186;-68
2021/08/03 04:56:01;;;;;;;21.47;15.60;;;;;;;24.07;78.17;101206.18;1806781;77;21395;-68
2021/08/03 04:58:34;;;;;;;23.02;15.43;;;;;;;24.04;78.25;101200.59;1813565;77;21381;-67
2021/08/03 05:01:08;;;;;;;25.35;15.78;;;;;;;24.04;78.42;101200.59;1807707;77;21376;-73
2021/08/03 05:03:42;;;;;;;28.30;15.95;;;;;;;24.09;78.24;101201.80;1816491;77;21146;-75
2021/08/03 05:06:14;;;;;;;26.00;16.67;;;;;;;24.14;78.22;101203.05;1808869;79;21284;-73
2021/08/03 05:08:47;;;;;;;24.63;16.55;;;;;;;24.20;77.94;101214.47;1816218;77;21528;-76
2021/08/03 05:11:19;;;;;;;22.77;17.00;;;;;;;24.26;77.49;101203.78;1815657;78;21763;-73
2021/08/03 05:13:53;;;;;;;25.90;16.77;;;;;;;24.29;77.11;101213.02;1815128;77;21443;-75
2021/08/03 05:16:29;;;;;;;29.75;17.45;;;;;;;24.43;77.24;101210.79;1840163;77;21316;-73
2021/08/03 05:19:00;;;;;;;33.53;18.00;;;;;;;24.68;76.71;101210.72;1797128;80;21750;-77
2021/08/03 05:21:33;;;;;;;28.40;17.10;;;;;;;24.93;75.61;101225.98;1809907;79;21194;-71
2021/08/03 05:24:19;;;;;;;36.75;15.70;;;;;;;25.25;75.16;101225.28;1789831;79;21341;-70
2021/08/03 05:27:09;;;;;;;26.15;15.10;;;;;;;25.74;75.41;101230.07;1833235;77;21145;-72
2021/08/03 05:29:42;;;;;;;24.75;16.32;;;;;;;26.32;71.93;101237.78;1826119;77;21796;-73
2021/08/03 05:32:14;;;;;;;24.37;16.17;;;;;;;26.56;69.58;101229.89;1815533;79;21360;-72
2021/08/03 05:34:47;;;;;;;27.32;17.00;;;;;;;26.61;68.57;101242.49;1814941;77;21277;-73
2021/08/03 05:37:20;;;;;;;29.30;16.30;;;;;;;26.48;67.22;101244.48;1800393;77;21352;-72
2021/08/03 05:39:54;;;;;;;23.70;15.20;;;;;;;26.34;67.69;101243.14;1854916;77;21169;-76
2021/08/03 05:42:27;;;;;;;22.13;16.23;;;;;;;26.19;68.38;101238.94;1820022;77;22031;-72
2021/08/03 05:45:00;;;;;;;27.70;15.75;;;;;;;26.07;68.62;101238.90;1785659;80;21320;-71
2021/08/03 05:47:34;;;;;;;27.13;15.43;;;;;;;25.92;68.64;101247.27;1782044;80;21209;-73
2021/08/03 05:50:07;;;;;;;23.50;16.62;;;;;;;25.73;69.14;101250.57;1793303;80;21352;-72
2021/08/03 05:52:40;;;;;;;26.20;15.58;;;;;;;25.57;69.47;101244.44;1784841;80;21288;-74
2021/08/03 05:55:15;;;;;;;24.87;15.53;;;;;;;25.39;69.98;101240.91;1780217;80;21340;-73
2021/08/03 05:57:47;;;;;;;26.75;15.13;;;;;;;25.27;70.39;101253.63;1788002;80;21307;-73
2021/08/03 06:00:22;;;;;;;21.17;14.30;;;;;;;25.18;70.55;101249.95;1778971;79;21312;-73
2021/08/03 06:02:55;;;;;;;23.75;15.93;;;;;;;25.12;70.99;101258.45;1777238;81;21854;-72
2021/08/03 06:05:30;;;;;;;31.10;16.40;;;;;;;25.11;71.17;101259.63;1777465;81;21213;-74
2021/08/03 06:08:04;;;;;;;21.20;15.95;;;;;;;25.16;71.26;101252.33;1776997;80;21158;-73
2021/08/03 06:10:37;;;;;;;20.72;13.15;;;;;;;25.19;71.25;101251.66;1819528;78;21292;-75
2021/08/03 06:13:13;;;;;;;21.75;14.50;;;;;;;25.23;70.98;101260.33;1823837;77;21312;-73
2021/08/03 06:15:46;;;;;;;28.73;16.75;;;;;;;25.25;70.93;101263.68;1823952;78;21205;-77
2021/08/03 06:18:32;;;;;;;25.35;13.93;;;;;;;25.27;70.97;101265.00;1824231;78;21311;-73
2021/08/03 06:21:06;;;;;;;24.05;14.93;;;;;;;25.33;70.84;101261.36;1823960;77;21819;-73
2021/08/03 06:23:39;;;;;;;26.20;15.13;;;;;;;25.37;70.65;101256.66;1824264;78;21170;-73
2021/08/03 06:26:11;;;;;;;24.93;14.23;;;;;;;25.41;70.42;101261.91;1802139;78;21351;-72
2021/08/03 06:28:47;;;;;;;18.75;14.23;;;;;;;25.43;70.47;101273.16;1824375;78;21858;-73
2021/08/03 06:31:21;;;;;;;23.83;15.48;;;;;;;25.51;70.33;101277.13;1824019;78;21388;-74
2021/08/03 06:33:55;;;;;;;23.60;15.18;;;;;;;25.59;70.38;101281.33;1823907;78;21323;-73
2021/08/03 06:36:28;;;;;;;26.12;14.87;;;;;;;25.68;70.24;101277.84;1824135;78;21691;-74
2021/08/03 06:39:00;;;;;;;22.73;14.10;;;;;;;25.75;69.27;101290.92;1824254;78;21811;-72
2021/08/03 06:41:39;;;;;;;24.98;14.70;;;;;;;25.78;69.53;101297.94;1810527;78;21253;-74
2021/08/03 06:44:19;;;;;;;32.25;15.93;;;;;;;25.84;68.66;101299.39;1803997;79;21222;-74
2021/08/03 06:46:54;;;;;;;24.77;14.63;;;;;;;25.85;68.88;101295.36;1803643;79;21333;-73
2021/08/03 06:49:27;;;;;;;21.10;14.38;;;;;;;25.95;69.13;101289.26;1804040;79;21835;-73
2021/08/03 06:52:00;;;;;;;18.98;14.25;;;;;;;25.98;68.16;101271.48;1804135;79;21320;-74
2021/08/03 06:54:32;;;;;;;24.63;13.53;;;;;;;25.95;67.92;101256.52;1804432;79;21363;-72
2021/08/03 06:57:12;;;;;;;15.98;12.70;;;;;;;25.89;67.47;101236.53;1804173;79;21304;-77
2021/08/03 06:59:54;;;;;;;30.23;14.33;;;;;;;25.79;67.70;101225.59;1804121;79;21289;-73
2021/08/03 07:02:36;;;;;;;20.55;12.58;;;;;;;25.67;67.87;101207.85;1802120;79;21174;-73
2021/08/03 07:05:19;;;;;;;20.35;13.80;;;;;;;25.59;68.57;101202.27;1804108;79;21914;-73
2021/08/03 07:07:53;;;;;;;27.95;13.55;;;;;;;25.57;68.80;101203.18;1804313;79;21186;-74
2021/08/03 07:10:26;;;;;;;24.80;13.08;;;;;;;25.56;69.01;101205.79;1806269;76;21441;-73
2021/08/03 07:13:00;;;;;;;25.37;13.98;;;;;;;25.59;68.92;101212.22;1813720;78;21241;-75
2021/08/03 07:15:35;;;;;;;20.35;13.62;;;;;;;25.66;68.91;101209.03;1813701;79;21340;-77
2021/08/03 07:18:10;;;;;;;26.02;13.22;;;;;;;25.81;68.54;101220.37;1744622;80;21178;-73
2021/08/03 07:20:44;;;;;;;18.48;13.28;;;;;;;25.96;68.07;101237.67;1775186;81;21379;-73
2021/08/03 07:23:24;;;;;;;24.92;14.03;;;;;;;26.13;67.67;101239.50;1752102;80;21317;-73
2021/08/03 07:26:01;;;;;;;20.50;13.62;;;;;;;26.32;67.19;101254.88;1786172;80;21838;-74
2021/08/03 07:28:34;;;;;;;21.55;12.88;;;;;;;26.45;66.96;101253.72;1786007;80;21190;-72
2021/08/03 07:31:07;;;;;;;20.72;13.53;;;;;;;26.56;66.77;101261.24;1785922;80;21328;-73
2021/08/03 07:33:40;;;;;;;24.60;13.18;;;;;;;26.58;66.49;101264.59;1785984;80;21230;-73
2021/08/03 07:36:16;;;;;;;18.60;13.43;;;;;;;26.59;66.28;101266.25;1785709;80;21799;-74
2021/08/03 07:38:58;;;;;;;21.85;13.78;;;;;;;26.51;66.56;101276.52;1744590;82;21344;-72
2021/08/03 07:41:32;;;;;;;21.73;13.45;;;;;;;26.45;66.82;101278.55;1785989;80;21423;-73
2021/08/03 07:44:08;;;;;;;13.83;12.33;;;;;;;26.40;67.05;101282.42;1744636;80;21870;-73
2021/08/03 07:46:42;;;;;;;20.25;12.95;;;;;;;26.46;66.88;101282.44;1785972;80;21328;-73
2021/08/03 07:49:17;;;;;;;14.53;11.93;;;;;;;26.50;66.71;101281.14;1786171;80;21357;-73
2021/08/03 07:51:52;;;;;;;13.95;11.63;;;;;;;26.50;66.20;101281.14;1785952;80;21332;-72
2021/08/03 07:54:28;;;;;;;19.00;12.75;;;;;;;26.45;65.48;101296.45;1785988;80;21376;-72
2021/08/03 07:57:04;;;;;;;23.05;13.00;;;;;;;26.28;64.85;101293.79;1744329;80;21844;-73
2021/08/03 07:59:36;;;;;;;14.47;11.33;;;;;;;26.18;65.79;101293.41;1786057;80;21241;-73
2021/08/03 08:02:09;;;;;;;17.57;11.45;;;;;;;26.20;66.33;101296.75;1744639;82;21341;-72
2021/08/03 08:04:48;;;;;;;19.60;12.10;;;;;;;26.23;66.33;101294.61;1785920;80;21210;-74
2021/08/03 08:07:22;;;;;;;22.17;11.22;;;;;;;26.26;66.52;101293.89;1785786;80;21324;-73
2021/08/03 08:09:57;;;;;;;16.30;11.30;;;;;;;26.28;65.33;101295.83;1744867;82;21403;-73
2021/08/03 08:12:31;;;;;;;18.90;11.50;;;;;;;26.26;65.11;101311.83;1778070;80;21385;-73
2021/08/03 08:15:06;;;;;;;23.40;12.33;;;;;;;26.20;65.07;101329.51;1744828;81;21388;-74
2021/08/03 08:17:38;;;;;;;17.32;11.22;;;;;;;26.12;65.53;101338.94;1775245;80;21164;-73
2021/08/03 08:20:13;;;;;;;16.80;11.75;;;;;;;26.10;65.92;101335.02;1775373;80;21871;-73
2021/08/03 08:22:47;;;;;;;20.62;12.37;;;;;;;26.18;66.05;101335.55;1775231;80;21736;-73
2021/08/03 08:25:41;;;;;;;25.88;11.55;;;;;;;26.30;65.74;101347.57;1743986;82;21400;-73
2021/08/03 08:28:14;;;;;;;14.87;11.97;;;;;;;26.51;65.88;101339.22;1775103;80;21332;-74
2021/08/03 08:30:47;;;;;;;14.13;11.90;;;;;;;26.79;65.44;101331.73;1775455;80;21340;-73
2021/08/03 08:33:21;;;;;;;17.95;12.33;;;;;;;27.03;64.44;101328.08;1775335;80;21345;-73
2021/08/03 08:35:56;;;;;;;15.58;12.37;;;;;;;27.26;63.16;101320.76;1775088;80;21179;-73
2021/08/03 08:38:28;;;;;;;18.50;12.18;;;;;;;27.40;62.72;101315.73;1770390;75;24746;-72
2021/08/03 08:41:04;;;;;;;16.23;12.50;;;;;;;27.56;62.57;101310.12;1772334;81;21206;-74
2021/08/03 08:43:36;;;;;;;15.72;12.43;;;;;;;27.66;61.28;101309.65;1756518;81;21707;-73
2021/08/03 08:46:10;;;;;;;15.28;11.78;;;;;;;27.67;60.80;101309.30;1772552;81;21222;-72
2021/08/03 08:48:45;;;;;;;18.30;11.35;;;;;;;27.70;61.60;101312.84;1772496;81;21289;-72
2021/08/03 08:51:17;;;;;;;17.25;11.40;;;;;;;27.85;61.18;101299.28;1756379;81;21753;-72
2021/08/03 08:53:51;;;;;;;21.48;12.00;;;;;;;27.90;60.37;101303.91;1772544;81;21235;-73
2021/08/03 08:56:23;;;;;;;13.43;11.43;;;;;;;27.92;60.46;101304.37;1772477;81;21191;-71
2021/08/03 08:58:57;;;;;;;13.10;11.20;;;;;;;27.95;59.71;101310.19;1756484;81;21186;-72
2021/08/03 09:01:31;;;;;;;16.67;11.03;;;;;;;27.93;59.49;101321.15;1816246;79;21297;-73
2021/08/03 09:04:07;;;;;;;20.23;11.30;;;;;;;27.90;59.99;101326.76;1816211;79;21415;-73
2021/08/03 09:06:40;;;;;;;12.13;10.20;;;;;;;27.88;59.53;101311.41;1816262;79;21159;-81
2021/08/03 09:09:19;;;;;;;14.23;10.40;;;;;;;27.86;59.41;101314.38;1816330;79;21134;-75
2021/08/03 09:11:51;;;;;;;20.55;11.65;;;;;;;27.82;59.42;101312.84;1816174;79;21138;-73
2021/08/03 09:14:40;;;;;;;17.67;10.85;;;;;;;27.82;59.75;101307.13;1816394;79;21208;-73
2021/08/03 09:17:16;;;;;;;13.93;10.85;;;;;;;27.87;59.63;101315.45;1816289;79;21158;-71
2021/08/03 09:19:49;;;;;;;20.15;10.18;;;;;;;27.96;59.74;101304.73;1815234;79;21284;-73
2021/08/03 09:22:23;;;;;;;19.37;11.05;;;;;;;28.09;59.86;101300.63;1816396;79;21174;-72
2021/08/03 09:25:17;;;;;;;10.68;9.28;;;;;;;28.22;57.84;101296.52;1816308;79;21223;-72
2021/08/03 09:27:49;;;;;;;;;;;;;;;28.20;57.47;101308.08;1818685;79;21159;-72
2021/08/03 09:30:28;;;;;;;18.23;10.13;;;;;;;28.09;57.37;101310.63;1816209;79;20289;-74
2021/08/03 09:33:02;;;;;;;16.90;10.23;;;;;;;27.93;57.56;101312.58;1816383;79;21316;-78
2021/08/03 09:35:36;;;;;;;14.95;9.40;;;;;;;27.84;58.15;101303.34;1816608;79;21273;-72
2021/08/03 09:38:16;;;;;;;10.18;8.40;;;;;;;27.84;58.03;101297.63;1816610;79;21289;-72
2021/08/03 09:40:52;;;;;;;9.58;8.68;;;;;;;27.89;58.23;101299.39;1823307;78;21134;-73
2021/08/03 09:43:29;;;;;;;10.28;7.97;;;;;;;27.93;57.42;101298.30;1822154;77;21261;-74
2021/08/03 09:46:02;;;;;;;11.25;8.03;;;;;;;27.92;57.14;101296.64;1815602;79;21251;-74
2021/08/03 09:48:39;;;;;;;21.52;8.78;;;;;;;27.93;57.68;101294.59;1813685;79;21367;-74
2021/08/03 09:51:17;;;;;;;19.07;7.70;;;;;;;27.98;56.91;101281.49;1749389;79;21771;-76
2021/08/03 09:53:53;;;;;;;16.82;7.75;;;;;;;28.08;56.92;101284.69;1777900;81;21331;-79
2021/08/03 09:59:09;;;;;;;12.15;7.80;;;;;;;28.27;55.82;101289.70;1808757;79;21175;-75
2021/08/03 10:01:44;;;;;;;18.40;7.97;;;;;;;28.38;56.17;101293.12;1808782;79;21191;-74
2021/08/03 10:04:17;;;;;;;10.28;6.80;;;;;;;28.51;55.61;101281.03;1809078;79;21313;-73
2021/08/03 10:06:51;;;;;;;14.98;7.35;;;;;;;28.65;55.82;101289.41;1808534;79;21662;-73
2021/08/03 10:09:25;;;;;;;19.40;5.97;;;;;;;28.79;54.23;101285.48;1777970;79;21193;-74
2021/08/03 10:11:58;;;;;;;11.45;5.55;;;;;;;28.87;53.01;101285.08;1775044;81;21858;-74
2021/08/03 10:14:31;;;;;;;;;;;;;;;28.89;52.29;101279.81;1749860;81;21312;-75
2021/08/03 10:17:05;;;;;;;8.70;5.62;;;;;;;28.92;52.67;101274.80;1778982;80;20298;-72
2021/08/03 10:19:38;;;;;;;14.40;5.08;;;;;;;28.96;52.29;101265.13;1778168;81;21850;-74
2021/08/03 10:22:13;;;;;;;;;;;;;;;29.01;52.07;101255.42;1751171;81;21320;-79
2021/08/03 10:25:05;;;;;;;9.33;5.37;;;;;;;29.07;52.12;101256.22;1774938;80;20599;-74
2021/08/03 10:27:47;;;;;;;9.48;4.80;;;;;;;29.07;50.70;101258.23;1775126;81;21229;-73
2021/08/03 10:30:36;;;;;;;7.03;4.90;;;;;;;29.03;50.95;101261.01;1775199;81;21850;-77
2021/08/03 10:33:11;;;;;;;8.48;5.15;;;;;;;29.04;51.06;101267.58;1775043;81;21328;-73
2021/08/03 10:35:53;;;;;;;9.35;4.80;;;;;;;29.04;51.14;101276.97;1746412;81;21300;-76
2021/08/03 10:38:28;;;;;;;14.20;6.15;;;;;;;29.02;50.62;101269.38;1775734;81;21244;-75
2021/08/03 10:41:10;;;;;;;7.85;5.65;;;;;;;28.98;51.05;101265.58;1775219;81;21303;-76
2021/08/03 10:43:51;;;;;;;10.20;6.00;;;;;;;29.01;51.76;101260.56;1776336;80;21331;-77
2021/08/03 10:46:30;;;;;;;10.85;6.30;;;;;;;29.09;51.02;101264.44;1786357;79;21171;-78
2021/08/03 10:49:02;;;;;;;14.43;6.17;;;;;;;29.13;51.63;101267.61;1786380;80;21317;-76
2021/08/03 10:51:38;;;;;;;11.83;5.97;;;;;;;29.22;51.40;101269.66;1756072;80;21385;-72
2021/08/03 10:54:18;;;;;;;17.15;6.58;;;;;;;29.30;51.03;101270.67;1807998;79;21838;-78
2021/08/03 10:57:08;;;;;;;11.22;6.10;;;;;;;29.35;51.05;101270.39;1811165;79;21285;-73
2021/08/03 10:59:42;;;;;;;9.10;6.05;;;;;;;29.41;49.96;101270.33;1809948;79;21380;-77
2021/08/03 11:02:42;;;;;;;6.33;5.35;;;;;;;29.42;50.09;101277.13;1812501;78;21329;-73
2021/08/03 11:05:26;;;;;;;12.33;5.87;;;;;;;29.43;50.45;101282.23;1812897;79;21178;-72
2021/08/03 11:08:10;;;;;;;23.80;5.83;;;;;;;29.41;49.42;101277.48;1814294;79;21321;-73
2021/08/03 11:10:42;;;;;;;;;;;;;;;29.41;49.58;101286.08;1814164;79;21836;-73
2021/08/03 11:13:19;;;;;;;7.40;5.42;;;;;;;29.42;49.77;101284.87;1785504;80;20255;-74
2021/08/03 11:16:13;;;;;;;9.38;6.17;;;;;;;29.43;50.54;101292.25;1749341;80;21866;-77
2021/08/03 11:18:47;;;;;;;6.90;6.08;;;;;;;29.50;50.81;101301.85;1735232;82;21324;-73
2021/08/03 11:21:20;;;;;;;16.50;6.75;;;;;;;29.58;50.87;101297.97;1748894;81;21323;-72
2021/08/03 11:24:17;;;;;;;8.80;5.60;;;;;;;29.65;49.96;101301.00;1693214;83;21343;-77
2021/08/03 11:26:54;;;;;;;5.83;5.00;;;;;;;29.67;49.65;101300.05;1762229;81;21204;-74
2021/08/03 11:29:40;;;;;;;12.07;4.62;;;;;;;29.67;49.74;101304.34;1713041;84;21199;-73
2021/08/03 11:32:20;;;;;;;7.47;5.28;;;;;;;29.69;49.83;101306.81;1748992;82;21336;-72
2021/08/03 11:34:57;;;;;;;6.87;5.72;;;;;;;29.68;49.00;101303.13;1760793;80;21224;-74
2021/08/03 11:37:32;;;;;;;9.48;5.62;;;;;;;29.65;49.65;101298.13;1779982;80;21173;-72
2021/08/03 11:40:05;;;;;;;12.90;5.70;;;;;;;29.66;49.58;101301.84;1779895;80;21303;-73
2021/08/03 11:42:42;;;;;;;8.65;5.30;;;;;;;29.63;49.18;101304.85;1779887;80;21166;-74
2021/08/03 11:45:28;;;;;;;9.93;4.92;;;;;;;29.58;48.82;101295.73;1780013;80;21173;-72
2021/08/03 11:48:29;;;;;;;11.88;5.00;;;;;;;29.50;47.46;101290.40;1735330;82;21190;-74
2021/08/03 11:50:56;;;;;;;9.40;4.65;;;;;;;29.39;48.20;101283.58;1724798;82;21256;-74
2021/08/03 11:53:30;;;;;;;4.97;4.47;;;;;;;29.38;48.91;101279.06;1724803;82;21176;-77
2021/08/03 11:56:05;;;;;;;6.55;5.22;;;;;;;29.36;48.88;101277.77;1714879;83;21212;-73
2021/08/03 11:58:38;;;;;;;8.33;4.87;;;;;;;29.32;48.54;101266.23;1714963;83;21177;-76